Home > Products > Valid Products > TAF

000
FTUS43 KDDC 201720
TAFGCK
TAF
KGCK 201720Z 2018/2118 08012KT P6SM SKC
     FM210000 VRB05KT P6SM SKC
     FM211200 VRB05KT P6SM BKN012=



000
FTUS43 KDDC 201720
TAFHYS
TAF
KHYS 201720Z 2018/2118 VRB06KT P6SM SKC=



000
FTUS43 KDDC 201720
TAFDDC
TAF
KDDC 201720Z 2018/2118 08012KT P6SM SKC
     FM210000 VRB05KT P6SM SKC
     FM211200 VRB05KT P6SM BKN020=



000
FTUS43 KDDC 201720
TAFDDC
TAF
KDDC 201720Z 2018/2118 08012KT P6SM SKC
     FM210000 VRB05KT P6SM SKC
     FM211200 VRB05KT P6SM BKN020=



000
FTUS43 KDDC 201720
TAFGCK
TAF
KGCK 201720Z 2018/2118 08012KT P6SM SKC
     FM210000 VRB05KT P6SM SKC
     FM211200 VRB05KT P6SM BKN012=



000
FTUS43 KDDC 201720
TAFHYS
TAF
KHYS 201720Z 2018/2118 VRB06KT P6SM SKC=



000
FTUS43 KDDC 201518 AAC
TAFDDC
TAF AMD
KDDC 201518Z 2015/2112 36008KT 1/4SM FG VV001
     FM201600 01008KT 3SM BR BKN005
     FM201700 01008KT P6SM SCT007=



000
FTUS43 KDDC 201518 AAC
TAFDDC
TAF AMD
KDDC 201518Z 2015/2112 36008KT 1/4SM FG VV001
     FM201600 01008KT 3SM BR BKN005
     FM201700 01008KT P6SM SCT007=



000
FTUS43 KDDC 201336 AAB
TAFDDC
TAF AMD
KDDC 201336Z 2014/2112 36008KT 1/4SM FG VV001
     FM201500 01008KT 3SM BR BKN005
     FM201600 01008KT P6SM SCT007=



000
FTUS43 KDDC 201336 AAB
TAFDDC
TAF AMD
KDDC 201336Z 2014/2112 36008KT 1/4SM FG VV001
     FM201500 01008KT 3SM BR BKN005
     FM201600 01008KT P6SM SCT007=



000
FTUS43 KDDC 201238 AAA
TAFHYS
TAF AMD
KHYS 201238Z 2013/2112 36007KT P6SM SKC
      TEMPO 2013/2015 VRB06KT 1SM BR OVC002
     FM201800 06010KT P6SM SKC=



000
FTUS43 KDDC 201238 AAA
TAFHYS
TAF AMD
KHYS 201238Z 2013/2112 36007KT P6SM SKC
      TEMPO 2013/2015 VRB06KT 1SM BR OVC002
     FM201800 06010KT P6SM SKC=



000
FTUS43 KDDC 201120
TAFHYS
TAF
KHYS 201120Z 2012/2112 36007KT P6SM SKC
     FM201800 06010KT P6SM SKC=



000
FTUS43 KDDC 201120
TAFGCK
TAF
KGCK 201120Z 2012/2112 35007KT P6SM SKC
     FM201500 05010KT P6SM SKC=



000
FTUS43 KDDC 201120
TAFDDC
TAF
KDDC 201120Z 2012/2112 35007KT 1SM BR OVC002
      TEMPO 2012/2014 1/4SM FG VV002
     FM201400 06010KT P6SM SKC=



000
FTUS43 KDDC 201120
TAFHYS
TAF
KHYS 201120Z 2012/2112 36007KT P6SM SKC
     FM201800 06010KT P6SM SKC=



000
FTUS43 KDDC 201120
TAFDDC
TAF
KDDC 201120Z 2012/2112 35007KT 1SM BR OVC002
      TEMPO 2012/2014 1/4SM FG VV002
     FM201400 06010KT P6SM SKC=



000
FTUS43 KDDC 201120
TAFGCK
TAF
KGCK 201120Z 2012/2112 35007KT P6SM SKC
     FM201500 05010KT P6SM SKC=



000
FTUS43 KDDC 201048 AAC
TAFDDC
TAF AMD
KDDC 201048Z 2011/2106 34007KT 1SM BR OVC002
      TEMPO 2012/2014 3SM BR OVC002
     FM201400 06010KT P6SM SKC=



000
FTUS43 KDDC 201048 AAC
TAFDDC
TAF AMD
KDDC 201048Z 2011/2106 34007KT 1SM BR OVC002
      TEMPO 2012/2014 3SM BR OVC002
     FM201400 06010KT P6SM SKC=



000
FTUS43 KDDC 200957 AAB
TAFDDC
TAF AMD
KDDC 200957Z 2010/2106 34007KT 5SM BR BKN002
     FM201400 06010KT P6SM SKC=



000
FTUS43 KDDC 200957 AAB
TAFDDC
TAF AMD
KDDC 200957Z 2010/2106 34007KT 5SM BR BKN002
     FM201400 06010KT P6SM SKC=



000
FTUS43 KDDC 200957 AAB
TAFDDC
TAF AMD
KDDC 200957Z 2010/2106 34007KT 5SM BR BKN002
     FM201400 06010KT P6SM SKC=



000
FTUS43 KDDC 200957 AAB
TAFDDC
TAF AMD
KDDC 200957Z 2010/2106 34007KT 5SM BR BKN002
     FM201400 06010KT P6SM SKC=



000
FTUS43 KDDC 200948 AAA
TAFDDC
TAF AMD
KDDC 200948Z 2010/2106 33007KT 5SM BR SCT003
     FM201500 06010KT P6SM SKC=



000
FTUS43 KDDC 200948 AAA
TAFDDC
TAF AMD
KDDC 200948Z 2010/2106 33007KT 5SM BR SCT003
     FM201500 06010KT P6SM SKC=



000
FTUS43 KDDC 200948 AAA
TAFDDC
TAF AMD
KDDC 200948Z 2010/2106 33007KT 5SM BR SCT003
     FM201500 06010KT P6SM SKC=



000
FTUS43 KDDC 200948 AAA
TAFDDC
TAF AMD
KDDC 200948Z 2010/2106 33007KT 5SM BR SCT003
     FM201500 06010KT P6SM SKC=



000
FTUS43 KDDC 200520
TAFDDC
TAF
KDDC 200520Z 2006/2106 VRB06KT P6SM SKC
     FM200900 35007KT P6SM SKC
     FM201500 06010KT P6SM SKC=



000
FTUS43 KDDC 200520
TAFGCK
TAF
KGCK 200520Z 2006/2106 VRB06KT P6SM SKC
     FM200700 35007KT P6SM SKC
     FM201500 05010KT P6SM SKC=



000
FTUS43 KDDC 200520
TAFHYS
TAF
KHYS 200520Z 2006/2106 VRB06KT P6SM SKC
     FM200700 36007KT P6SM SKC
     FM201800 06010KT P6SM SKC=



000
FTUS43 KDDC 200520
TAFHYS
TAF
KHYS 200520Z 2006/2106 VRB06KT P6SM SKC
     FM200700 36007KT P6SM SKC
     FM201800 06010KT P6SM SKC=



000
FTUS43 KDDC 200520
TAFDDC
TAF
KDDC 200520Z 2006/2106 VRB06KT P6SM SKC
     FM200900 35007KT P6SM SKC
     FM201500 06010KT P6SM SKC=



000
FTUS43 KDDC 200520
TAFGCK
TAF
KGCK 200520Z 2006/2106 VRB06KT P6SM SKC
     FM200700 35007KT P6SM SKC
     FM201500 05010KT P6SM SKC=



000
FTUS43 KDDC 200520
TAFDDC
TAF
KDDC 200520Z 2006/2106 VRB06KT P6SM SKC
     FM200900 35007KT P6SM SKC
     FM201500 06010KT P6SM SKC=



000
FTUS43 KDDC 200520
TAFGCK
TAF
KGCK 200520Z 2006/2106 VRB06KT P6SM SKC
     FM200700 35007KT P6SM SKC
     FM201500 05010KT P6SM SKC=



000
FTUS43 KDDC 200520
TAFHYS
TAF
KHYS 200520Z 2006/2106 VRB06KT P6SM SKC
     FM200700 36007KT P6SM SKC
     FM201800 06010KT P6SM SKC=



000
FTUS43 KDDC 192350
TAFHYS
TAF
KHYS 192350Z 2000/2024 VRB06KT P6SM SKC
     FM200700 36007KT P6SM SKC
     FM201800 05010KT P6SM SKC=



000
FTUS43 KDDC 192350
TAFDDC
TAF
KDDC 192350Z 2000/2024 VRB06KT P6SM SKC
     FM200900 36007KT P6SM SKC
     FM201500 04010KT P6SM SKC=



000
FTUS43 KDDC 192350
TAFGCK
TAF
KGCK 192350Z 2000/2024 VRB06KT P6SM SKC
     FM200700 36007KT P6SM SKC
     FM201500 05010KT P6SM SKC=



000
FTUS43 KDDC 192350
TAFGCK
TAF
KGCK 192350Z 2000/2024 VRB06KT P6SM SKC
     FM200700 36007KT P6SM SKC
     FM201500 05010KT P6SM SKC=



000
FTUS43 KDDC 192350
TAFHYS
TAF
KHYS 192350Z 2000/2024 VRB06KT P6SM SKC
     FM200700 36007KT P6SM SKC
     FM201800 05010KT P6SM SKC=



000
FTUS43 KDDC 192350
TAFDDC
TAF
KDDC 192350Z 2000/2024 VRB06KT P6SM SKC
     FM200900 36007KT P6SM SKC
     FM201500 04010KT P6SM SKC=



000
FTUS43 KDDC 192350
TAFDDC
TAF
KDDC 192350Z 2000/2024 VRB06KT P6SM SKC
     FM200900 36007KT P6SM SKC
     FM201500 04010KT P6SM SKC=



000
FTUS43 KDDC 192350
TAFHYS
TAF
KHYS 192350Z 2000/2024 VRB06KT P6SM SKC
     FM200700 36007KT P6SM SKC
     FM201800 05010KT P6SM SKC=



000
FTUS43 KDDC 192350
TAFHYS
TAF
KHYS 192350Z 2000/2024 VRB06KT P6SM SKC
     FM200700 36007KT P6SM SKC
     FM201800 05010KT P6SM SKC=



000
FTUS43 KDDC 192350
TAFDDC
TAF
KDDC 192350Z 2000/2024 VRB06KT P6SM SKC
     FM200900 36007KT P6SM SKC
     FM201500 04010KT P6SM SKC=



000
FTUS43 KDDC 192350
TAFGCK
TAF
KGCK 192350Z 2000/2024 VRB06KT P6SM SKC
     FM200700 36007KT P6SM SKC
     FM201500 05010KT P6SM SKC=



000
FTUS43 KDDC 192350
TAFGCK
TAF
KGCK 192350Z 2000/2024 VRB06KT P6SM SKC
     FM200700 36007KT P6SM SKC
     FM201500 05010KT P6SM SKC=



000
FTUS43 KDDC 191720
TAFGCK
TAF
KGCK 191720Z 1918/2018 21020G25KT P6SM SKC
     FM200000 VRB05KT P6SM SKC
     FM200700 36007KT P6SM SKC=



000
FTUS43 KDDC 191720
TAFDDC
TAF
KDDC 191720Z 1918/2018 19020G25KT P6SM SKC
     FM200000 19007KT P6SM SKC
     FM200900 36007KT P6SM BKN250=



000
FTUS43 KDDC 191720
TAFHYS
TAF
KHYS 191720Z 1918/2018 19010KT P6SM SKC
     FM200000 VRB05KT P6SM SKC
     FM200700 36007KT P6SM SKC=



000
FTUS43 KDDC 191720
TAFDDC
TAF
KDDC 191720Z 1918/2018 19020G25KT P6SM SKC
     FM200000 19007KT P6SM SKC
     FM200900 36007KT P6SM BKN250=



000
FTUS43 KDDC 191720
TAFGCK
TAF
KGCK 191720Z 1918/2018 21020G25KT P6SM SKC
     FM200000 VRB05KT P6SM SKC
     FM200700 36007KT P6SM SKC=



000
FTUS43 KDDC 191720
TAFHYS
TAF
KHYS 191720Z 1918/2018 19010KT P6SM SKC
     FM200000 VRB05KT P6SM SKC
     FM200700 36007KT P6SM SKC=



000
FTUS43 KDDC 191136
TAFGCK
TAF
KGCK 191136Z 1912/2012 17009KT P6SM FEW150
     FM191600 20013G19KT P6SM SKC
     FM200000 VRB06KT P6SM SKC=



000
FTUS43 KDDC 191136
TAFHYS
TAF
KHYS 191136Z 1912/2012 19006KT P6SM FEW150
     FM191600 20012G18KT P6SM SKC
     FM200000 VRB06KT P6SM SKC=



000
FTUS43 KDDC 191136
TAFGCK
TAF
KGCK 191136Z 1912/2012 17009KT P6SM FEW150
     FM191600 20013G19KT P6SM SKC
     FM200000 VRB06KT P6SM SKC=



000
FTUS43 KDDC 191136
TAFDDC
TAF
KDDC 191136Z 1912/2012 18011KT P6SM SCT150
     FM191600 20015G23KT P6SM FEW150
     FM200000 17008KT P6SM SKC=



000
FTUS43 KDDC 191136
TAFDDC
TAF
KDDC 191136Z 1912/2012 18011KT P6SM SCT150
     FM191600 20015G23KT P6SM FEW150
     FM200000 17008KT P6SM SKC=



000
FTUS43 KDDC 191136
TAFHYS
TAF
KHYS 191136Z 1912/2012 19006KT P6SM FEW150
     FM191600 20012G18KT P6SM SKC
     FM200000 VRB06KT P6SM SKC=



000
FTUS43 KDDC 190754 RRA
TAFDDC
TAF
KDDC 190754Z 1908/2006 17011KT P6SM BKN110
     FM191600 20016G23KT P6SM BKN200
     FM200100 VRB06KT P6SM BKN150=



000
FTUS43 KDDC 190754 RRA
TAFGCK
TAF
KGCK 190754Z 1908/2006 15009KT P6SM SCT100
     FM191600 20013G19KT P6SM BKN200
     FM200100 VRB06KT P6SM BKN150=



000
FTUS43 KDDC 190754 RRA
TAFGCK
TAF
KGCK 190754Z 1908/2006 15009KT P6SM SCT100
     FM191600 20013G19KT P6SM BKN200
     FM200100 VRB06KT P6SM BKN150=



000
FTUS43 KDDC 190754 RRA
TAFHYS
TAF
KHYS 190754Z 1908/2006 17005KT P6SM FEW110
     FM191600 20016G23KT P6SM BKN200
     FM200100 VRB06KT P6SM BKN150=



000
FTUS43 KDDC 190754 RRA
TAFHYS
TAF
KHYS 190754Z 1908/2006 17005KT P6SM FEW110
     FM191600 20016G23KT P6SM BKN200
     FM200100 VRB06KT P6SM BKN150=



000
FTUS43 KDDC 190754 RRA
TAFDDC
TAF
KDDC 190754Z 1908/2006 17011KT P6SM BKN110
     FM191600 20016G23KT P6SM BKN200
     FM200100 VRB06KT P6SM BKN150=



000
FTUS43 KDDC 182339
TAFGCK
TAF
KGCK 182339Z 1900/1924 16009KT P6SM BKN150
     FM191600 20013G19KT P6SM BKN200=



000
FTUS43 KDDC 182339
TAFHYS
TAF
KHYS 182339Z 1900/1924 16009KT P6SM BKN150
     FM191600 20016G23KT P6SM BKN200=



000
FTUS43 KDDC 182339
TAFDDC
TAF
KDDC 182339Z 1900/1924 16009KT P6SM BKN150
     FM191600 20016G23KT P6SM BKN200=



000
FTUS43 KDDC 182339
TAFHYS
TAF
KHYS 182339Z 1900/1924 16009KT P6SM BKN150
     FM191600 20016G23KT P6SM BKN200=



000
FTUS43 KDDC 182339
TAFGCK
TAF
KGCK 182339Z 1900/1924 16009KT P6SM BKN150
     FM191600 20013G19KT P6SM BKN200=



000
FTUS43 KDDC 182339
TAFDDC
TAF
KDDC 182339Z 1900/1924 16009KT P6SM BKN150
     FM191600 20016G23KT P6SM BKN200=



000
FTUS43 KDDC 181720
TAFGCK
TAF
KGCK 181720Z 1818/1918 16010KT P6SM BKN200
     FM191500 19016G21KT P6SM BKN250=



000
FTUS43 KDDC 181720
TAFDDC
TAF
KDDC 181720Z 1818/1918 16009KT P6SM BKN200
     FM191500 19016G21KT P6SM BKN250=



000
FTUS43 KDDC 181720
TAFHYS
TAF
KHYS 181720Z 1818/1918 16005KT P6SM BKN200
     FM191500 19012KT P6SM SCT250=



000
FTUS43 KDDC 181128
TAFGCK
TAF
KGCK 181128Z 1812/1912 08007KT P6SM BKN200
     FM181800 15010KT P6SM BKN200=



000
FTUS43 KDDC 181128
TAFDDC
TAF
KDDC 181128Z 1812/1912 VRB06KT P6SM BKN200
     FM182000 16010KT P6SM BKN200=



000
FTUS43 KDDC 181128
TAFHYS
TAF
KHYS 181128Z 1812/1912 VRB06KT P6SM SCT200
     FM182100 15010KT P6SM SCT200=



000
FTUS43 KDDC 181128
TAFGCK
TAF
KGCK 181128Z 1812/1912 08007KT P6SM BKN200
     FM181800 15010KT P6SM BKN200=



000
FTUS43 KDDC 181128
TAFHYS
TAF
KHYS 181128Z 1812/1912 VRB06KT P6SM SCT200
     FM182100 15010KT P6SM SCT200=



000
FTUS43 KDDC 181128
TAFDDC
TAF
KDDC 181128Z 1812/1912 VRB06KT P6SM BKN200
     FM182000 16010KT P6SM BKN200=



000
FTUS43 KDDC 181128
TAFHYS
TAF
KHYS 181128Z 1812/1912 VRB06KT P6SM SCT200
     FM182100 15010KT P6SM SCT200=



000
FTUS43 KDDC 181128
TAFGCK
TAF
KGCK 181128Z 1812/1912 08007KT P6SM BKN200
     FM181800 15010KT P6SM BKN200=



000
FTUS43 KDDC 181128
TAFDDC
TAF
KDDC 181128Z 1812/1912 VRB06KT P6SM BKN200
     FM182000 16010KT P6SM BKN200=



000
FTUS43 KDDC 181128
TAFGCK
TAF
KGCK 181128Z 1812/1912 08007KT P6SM BKN200
     FM181800 15010KT P6SM BKN200=



000
FTUS43 KDDC 181128
TAFDDC
TAF
KDDC 181128Z 1812/1912 VRB06KT P6SM BKN200
     FM182000 16010KT P6SM BKN200=



000
FTUS43 KDDC 181128
TAFHYS
TAF
KHYS 181128Z 1812/1912 VRB06KT P6SM SCT200
     FM182100 15010KT P6SM SCT200=



000
FTUS43 KDDC 180520
TAFDDC
TAF
KDDC 180520Z 1806/1906 04004KT P6SM SCT200
     FM182000 14010G17KT P6SM SCT200
     FM190100 15007KT P6SM SCT200=



000
FTUS43 KDDC 180520
TAFGCK
TAF
KGCK 180520Z 1806/1906 07007KT P6SM SKC
     FM182000 15011G18KT P6SM SCT200
     FM190100 14008KT P6SM SCT200=



000
FTUS43 KDDC 180520
TAFHYS
TAF
KHYS 180520Z 1806/1906 04008KT P6SM SKC
     FM182100 15009KT P6SM SCT200=



000
FTUS43 KDDC 180520
TAFGCK
TAF
KGCK 180520Z 1806/1906 07007KT P6SM SKC
     FM182000 15011G18KT P6SM SCT200
     FM190100 14008KT P6SM SCT200=



000
FTUS43 KDDC 180520
TAFHYS
TAF
KHYS 180520Z 1806/1906 04008KT P6SM SKC
     FM182100 15009KT P6SM SCT200=



000
FTUS43 KDDC 180520
TAFDDC
TAF
KDDC 180520Z 1806/1906 04004KT P6SM SCT200
     FM182000 14010G17KT P6SM SCT200
     FM190100 15007KT P6SM SCT200=



000
FTUS43 KDDC 172335
TAFDDC
TAF
KDDC 172335Z 1800/1824 04007KT P6SM SCT200
     FM182000 14012G18KT P6SM SCT200=



000
FTUS43 KDDC 172335
TAFDDC
TAF
KDDC 172335Z 1800/1824 04007KT P6SM SCT200
     FM182000 14012G18KT P6SM SCT200=



000
FTUS43 KDDC 172335
TAFGCK
TAF
KGCK 172335Z 1800/1824 04007KT P6SM SCT200
     FM182000 14012G18KT P6SM SCT200=



000
FTUS43 KDDC 172335
TAFHYS
TAF
KHYS 172335Z 1800/1824 05006KT P6SM SCT200=



000
FTUS43 KDDC 172335
TAFGCK
TAF
KGCK 172335Z 1800/1824 04007KT P6SM SCT200
     FM182000 14012G18KT P6SM SCT200=



000
FTUS43 KDDC 172335
TAFHYS
TAF
KHYS 172335Z 1800/1824 05006KT P6SM SCT200=



000
FTUS43 KDDC 172335
TAFHYS
TAF
KHYS 172335Z 1800/1824 05006KT P6SM SCT200=



000
FTUS43 KDDC 172335
TAFDDC
TAF
KDDC 172335Z 1800/1824 04007KT P6SM SCT200
     FM182000 14012G18KT P6SM SCT200=



000
FTUS43 KDDC 172335
TAFGCK
TAF
KGCK 172335Z 1800/1824 04007KT P6SM SCT200
     FM182000 14012G18KT P6SM SCT200=



000
FTUS43 KDDC 172335
TAFHYS
TAF
KHYS 172335Z 1800/1824 05006KT P6SM SCT200=



000
FTUS43 KDDC 172335
TAFDDC
TAF
KDDC 172335Z 1800/1824 04007KT P6SM SCT200
     FM182000 14012G18KT P6SM SCT200=



000
FTUS43 KDDC 172335
TAFGCK
TAF
KGCK 172335Z 1800/1824 04007KT P6SM SCT200
     FM182000 14012G18KT P6SM SCT200=



    US Dept of Commerce
    National Oceanic and Atmospheric Administration
    National Weather Service
    1325 East West Highway
    Silver Spring, MD 20910
    Page Author: NWS Internet Services Team
Disclaimer
Information Quality
Credits
Glossary
Privacy Policy
Freedom of Information Act (FOIA)
About Us
Career Opportunities